Terminal Aerodrome Forecast
Issued by NWS

Home | Current Version | Previous Version | Text Only | Print | Product List | Glossary On
Versions: 1 2 3 4 5 6 7 8 9 10 11 12 13 14 15
910
FTUS46 KLOX 010533
TAFSBA
TAF
KSBA 010533Z 0106/0206 VRB03KT P6SM SKC WS015/34030KT
     FM011000 VRB03KT P6SM SKC
     FM011600 14006KT P6SM SKC
     FM012000 26008KT P6SM SKC
     FM020100 30008KT P6SM SKC WS010/34030KT=

USA.gov is the U.S. government's official web portal to all federal, state and local government web resources and services.